createdAt,value
2022-09-04T00:01:22.246Z,100047.38
2022-09-04T00:04:17.206Z,100051.97
2022-09-04T00:07:07.619Z,100050.75
2022-09-04T00:09:53.467Z,100052.97
2022-09-04T00:12:34.238Z,100054.13
2022-09-04T00:15:16.536Z,100053.50
2022-09-04T00:18:02.074Z,100050.03
2022-09-04T00:20:29.116Z,100055.25
2022-09-04T00:23:03.300Z,100057.56
2022-09-04T00:25:33.493Z,100058.16
2022-09-04T00:28:13.559Z,100064.69
2022-09-04T00:30:50.490Z,100066.91
2022-09-04T00:33:40.313Z,100062.28
2022-09-04T00:36:09.841Z,100059.25
2022-09-04T00:38:55.642Z,100062.28
2022-09-04T00:41:51.535Z,100062.63
2022-09-04T00:44:21.024Z,100068.75
2022-09-04T00:46:56.350Z,100062.25
2022-09-04T00:49:30.842Z,100057.63
2022-09-04T00:52:31.448Z,100059.19
2022-09-04T00:55:25.276Z,100060.25
2022-09-04T00:57:58.363Z,100066.44
2022-09-04T01:00:30.359Z,100062.28
2022-09-04T01:03:12.413Z,100065.94
2022-09-04T01:06:00.992Z,100069.47
2022-09-04T01:08:46.722Z,100066.66
2022-09-04T01:11:33.348Z,100060.75
2022-09-04T01:14:15.184Z,100053.03
2022-09-04T01:16:45.077Z,100061.22
2022-09-04T01:19:27.290Z,100061.47
2022-09-04T01:22:12.677Z,100066.09
2022-09-04T01:24:54.361Z,100060.38
2022-09-04T01:27:42.296Z,100067.16
2022-09-04T01:30:15.239Z,100067.97
2022-09-04T01:32:59.589Z,100070.88
2022-09-04T01:35:29.072Z,100069.28
2022-09-04T01:38:02.310Z,100070.97
2022-09-04T01:40:35.363Z,100071.88
2022-09-04T01:43:03.034Z,100079.41
2022-09-04T01:45:39.348Z,100082.38
2022-09-04T01:48:17.105Z,100087.69
2022-09-04T01:50:48.526Z,100090.81
2022-09-04T01:53:22.045Z,100084.75
2022-09-04T01:56:15.461Z,100089.63
2022-09-04T01:58:45.280Z,100086.28
2022-09-04T02:01:30.978Z,100089.41
2022-09-04T02:04:06.495Z,100091.53
2022-09-04T02:06:51.429Z,100093.84
2022-09-04T02:09:32.659Z,100091.53
2022-09-04T02:12:14.589Z,100097.78
2022-09-04T02:15:12.967Z,100098.78
2022-09-04T02:17:52.645Z,100100.41
2022-09-04T02:20:27.186Z,100095.16
2022-09-04T02:23:14.699Z,100092.69
2022-09-04T02:26:00.834Z,100092.34
2022-09-04T02:28:36.887Z,100091.34
2022-09-04T02:31:21.660Z,100098.78
2022-09-04T02:33:55.972Z,100087.22
2022-09-04T02:36:41.556Z,100096.28
2022-09-04T02:39:18.397Z,100092.25
2022-09-04T02:41:53.365Z,100095.19
2022-09-04T02:44:26.552Z,100090.63
2022-09-04T02:47:09.113Z,100097.63
2022-09-04T02:49:55.564Z,100097.28
2022-09-04T02:52:22.453Z,100101.19
2022-09-04T02:55:10.955Z,100105.22
2022-09-04T02:57:56.744Z,100101.19
2022-09-04T03:00:33.451Z,100089.00
2022-09-04T03:03:22.076Z,100095.06
2022-09-04T03:06:04.834Z,100095.88
2022-09-04T03:08:43.405Z,100097.41
2022-09-04T03:11:24.877Z,100102.16
2022-09-04T03:14:15.933Z,100103.63
2022-09-04T03:16:50.609Z,100097.81
2022-09-04T03:19:25.464Z,100101.13
2022-09-04T03:21:57.687Z,100102.31
2022-09-04T03:24:38.346Z,100101.13
2022-09-04T03:27:15.051Z,100100.53
2022-09-04T03:29:54.064Z,100111.91
2022-09-04T03:32:57.807Z,100115.09
2022-09-04T03:35:42.367Z,100112.84
2022-09-04T03:38:20.827Z,100112.84
2022-09-04T03:41:11.545Z,100119.38
2022-09-04T03:43:57.975Z,100121.41
2022-09-04T03:46:32.866Z,100127.19
2022-09-04T03:49:12.970Z,100119.63
2022-09-04T03:51:55.243Z,100119.72
2022-09-04T03:54:40.400Z,100137.34
2022-09-04T03:57:12.920Z,100142.31
2022-09-04T03:59:42.581Z,100142.06
2022-09-04T04:02:14.534Z,100140.78
2022-09-04T04:04:42.521Z,100152.00
2022-09-04T04:07:41.609Z,100162.06
2022-09-04T04:10:19.727Z,100169.13
2022-09-04T04:13:16.115Z,100164.19
2022-09-04T04:15:54.646Z,100171.59
2022-09-04T04:18:39.840Z,100180.13
2022-09-04T04:21:30.564Z,100183.91
2022-09-04T04:24:08.917Z,100184.84
2022-09-04T04:26:43.595Z,100192.53
2022-09-04T04:29:28.050Z,100184.50
2022-09-04T04:32:12.470Z,100196.09
2022-09-04T04:35:01.010Z,100198.09
2022-09-04T04:37:43.824Z,100197.50
2022-09-04T04:40:36.792Z,100204.63
2022-09-04T04:43:16.833Z,100207.81
2022-09-04T04:45:55.012Z,100206.66
2022-09-04T04:48:30.928Z,100210.19
2022-09-04T04:51:17.071Z,100207.88
2022-09-04T04:54:07.130Z,100217.53
2022-09-04T04:56:59.105Z,100211.06
2022-09-04T04:59:58.036Z,100224.41
2022-09-04T05:02:31.754Z,100220.03
2022-09-04T05:05:13.613Z,100219.44
2022-09-04T05:07:50.917Z,100223.25
2022-09-04T05:10:20.634Z,100221.47
2022-09-04T05:12:56.368Z,100227.38
2022-09-04T05:15:43.833Z,100230.81
2022-09-04T05:18:34.280Z,100234.72
2022-09-04T05:21:06.434Z,100237.91
2022-09-04T05:26:48.644Z,100236.72
2022-09-04T05:29:44.607Z,100238.16
2022-09-04T05:32:20.001Z,100247.03
2022-09-04T05:35:03.353Z,100244.41
2022-09-04T05:38:00.436Z,100250.47
2022-09-04T05:40:36.117Z,100257.06
2022-09-04T05:43:15.592Z,100255.03
2022-09-04T05:45:58.728Z,100249.59
2022-09-04T05:48:44.084Z,100262.34
2022-09-04T05:51:36.422Z,100255.69
2022-09-04T05:54:09.339Z,100254.59
2022-09-04T05:56:51.654Z,100257.31
2022-09-04T05:59:33.094Z,100263.97
2022-09-04T06:05:21.872Z,100267.75
2022-09-04T06:07:52.854Z,100268.00
2022-09-04T06:10:27.018Z,100262.28
2022-09-04T06:13:20.180Z,100252.50
2022-09-04T06:16:13.693Z,100254.16
2022-09-04T06:18:49.898Z,100248.84
2022-09-04T06:21:41.636Z,100248.75
2022-09-04T06:24:27.241Z,100262.31
2022-09-04T06:27:15.728Z,100258.47
2022-09-04T06:29:42.600Z,100255.91
2022-09-04T06:32:36.729Z,100253.09
2022-09-04T06:35:16.892Z,100254.41
2022-09-04T06:37:55.066Z,100254.06
2022-09-04T06:40:33.807Z,100252.38
2022-09-04T06:43:18.121Z,100254.69
2022-09-04T06:46:16.257Z,100260.13
2022-09-04T06:48:57.276Z,100260.66
2022-09-04T06:51:45.115Z,100266.25
2022-09-04T06:54:18.161Z,100265.44
2022-09-04T06:56:56.079Z,100267.22
2022-09-04T06:59:37.672Z,100267.44
2022-09-04T07:02:26.174Z,100264.34
2022-09-04T07:05:06.306Z,100269.66
2022-09-04T07:07:41.822Z,100270.00
2022-09-04T07:10:36.428Z,100272.53
2022-09-04T07:13:13.094Z,100274.03
2022-09-04T07:15:46.190Z,100275.63
2022-09-04T07:18:40.402Z,100284.41
2022-09-04T07:21:28.623Z,100278.34
2022-09-04T07:24:05.273Z,100284.72
2022-09-04T07:27:03.978Z,100283.47
2022-09-04T07:29:30.919Z,100284.94
2022-09-04T07:32:07.692Z,100291.41
2022-09-04T07:35:02.827Z,100288.25
2022-09-04T07:37:41.805Z,100294.31
2022-09-04T07:40:34.580Z,100303.81
2022-09-04T07:46:05.576Z,100300.50
2022-09-04T07:48:46.168Z,100303.50
2022-09-04T07:51:19.409Z,100302.34
2022-09-04T07:54:22.352Z,100301.91
2022-09-04T07:57:15.005Z,100311.47
2022-09-04T08:00:06.851Z,100306.47
2022-09-04T08:02:48.748Z,100307.56
2022-09-04T08:05:32.015Z,100318.88
2022-09-04T08:08:24.143Z,100319.47
2022-09-04T08:11:03.313Z,100325.09
2022-09-04T08:13:39.571Z,100325.09
2022-09-04T08:16:26.044Z,100326.94
2022-09-04T08:18:57.360Z,100328.31
2022-09-04T08:21:34.975Z,100338.22
2022-09-04T08:24:20.872Z,100336.00
2022-09-04T08:27:14.061Z,100337.94
2022-09-04T08:29:57.297Z,100342.44
2022-09-04T08:32:43.083Z,100340.59
2022-09-04T08:35:22.594Z,100336.75
2022-09-04T08:38:12.358Z,100340.97
2022-09-04T08:41:13.065Z,100331.88
2022-09-04T08:44:02.247Z,100330.53
2022-09-04T08:46:57.944Z,100329.03
2022-09-04T08:49:46.492Z,100333.47
2022-09-04T08:53:04.040Z,100340.09
2022-09-04T08:55:59.248Z,100338.94
2022-09-04T08:58:27.860Z,100345.31
2022-09-04T09:01:16.416Z,100342.63
2022-09-04T09:03:55.814Z,100344.75
2022-09-04T09:06:41.893Z,100339.16
2022-09-04T09:09:27.260Z,100343.94
2022-09-04T09:12:23.404Z,100353.31
2022-09-04T09:15:20.173Z,100352.63
2022-09-04T09:18:16.775Z,100343.78
2022-09-04T09:21:04.920Z,100350.25
2022-09-04T09:23:56.260Z,100349.50
2022-09-04T09:26:35.630Z,100350.56
2022-09-04T09:29:24.182Z,100341.78
2022-09-04T09:32:08.252Z,100346.78
2022-09-04T09:35:00.427Z,100352.53
2022-09-04T09:37:33.477Z,100356.75
2022-09-04T09:40:08.172Z,100363.00
2022-09-04T09:43:15.958Z,100356.41
2022-09-04T09:46:21.410Z,100362.03
2022-09-04T09:49:15.528Z,100360.19
2022-09-04T09:51:55.715Z,100361.94
2022-09-04T09:54:39.919Z,100364.03
2022-09-04T09:57:33.245Z,100365.53
2022-09-04T10:00:19.017Z,100370.03
2022-09-04T10:03:08.003Z,100364.97
2022-09-04T10:05:40.820Z,100362.88
2022-09-04T10:08:18.148Z,100372.09
2022-09-04T10:11:14.700Z,100373.25
2022-09-04T10:13:47.508Z,100373.75
2022-09-04T10:16:24.522Z,100372.44
2022-09-04T10:19:16.645Z,100372.25
2022-09-04T10:21:49.274Z,100369.88
2022-09-04T10:24:48.066Z,100374.44
2022-09-04T10:27:25.754Z,100376.22
2022-09-04T10:30:14.026Z,100369.13
2022-09-04T10:33:11.879Z,100370.63
2022-09-04T10:36:01.583Z,100355.44
2022-09-04T10:39:04.742Z,100364.09
2022-09-04T10:41:48.607Z,100353.50
2022-09-04T10:44:33.014Z,100359.81
2022-09-04T10:47:11.630Z,100368.38
2022-09-04T10:50:08.633Z,100367.25
2022-09-04T10:53:10.489Z,100361.84
2022-09-04T10:55:40.030Z,100367.06
2022-09-04T10:58:22.340Z,100356.91
2022-09-04T11:01:15.258Z,100357.19
2022-09-04T11:03:58.075Z,100366.81
2022-09-04T11:06:46.249Z,100356.34
2022-09-04T11:09:22.269Z,100353.31
2022-09-04T11:12:14.818Z,100358.03
2022-09-04T11:15:07.298Z,100353.97
2022-09-04T11:17:56.015Z,100353.94
2022-09-04T11:20:26.533Z,100358.34
2022-09-04T11:23:15.366Z,100355.66
2022-09-04T11:25:45.435Z,100355.34
2022-09-04T11:31:31.396Z,100348.53
2022-09-04T11:34:10.561Z,100348.81
2022-09-04T11:36:57.450Z,100344.41
2022-09-04T11:39:27.471Z,100352.94
2022-09-04T11:42:23.236Z,100340.84
2022-09-04T11:45:14.725Z,100346.34
2022-09-04T11:51:09.152Z,100347.16
2022-09-04T11:54:06.377Z,100351.53
2022-09-04T11:57:10.289Z,100343.56
2022-09-04T11:59:47.538Z,100346.59
2022-09-04T12:02:35.550Z,100342.72
2022-09-04T12:05:13.632Z,100341.91
2022-09-04T12:07:52.082Z,100340.25
2022-09-04T12:11:04.763Z,100338.88
2022-09-04T12:13:45.271Z,100337.72
2022-09-04T12:16:44.716Z,100329.44
2022-09-04T12:19:16.717Z,100335.63
2022-09-04T12:22:06.944Z,100348.13
2022-09-04T12:25:10.785Z,100332.63
2022-09-04T12:27:45.738Z,100329.75
2022-09-04T12:30:27.053Z,100330.75
2022-09-04T12:33:17.248Z,100339.66
2022-09-04T12:36:13.074Z,100336.25
2022-09-04T12:38:56.043Z,100339.91
2022-09-04T12:41:28.603Z,100332.59
2022-09-04T12:44:16.820Z,100328.88
2022-09-04T12:47:02.263Z,100326.06
2022-09-04T12:49:32.322Z,100324.50
2022-09-04T12:52:10.137Z,100329.03
2022-09-04T12:54:44.057Z,100338.41
2022-09-04T12:57:34.279Z,100330.38
2022-09-04T13:00:18.329Z,100325.41
2022-09-04T13:02:57.391Z,100320.16
2022-09-04T13:05:29.948Z,100316.84
2022-09-04T13:08:07.826Z,100319.28
2022-09-04T13:10:58.362Z,100321.78
2022-09-04T13:13:38.929Z,100315.09
2022-09-04T13:16:32.546Z,100318.13
2022-09-04T13:19:03.564Z,100315.66
2022-09-04T13:22:00.004Z,100309.63
2022-09-04T13:24:39.961Z,100303.53
2022-09-04T13:27:30.741Z,100314.59
2022-09-04T13:30:11.887Z,100314.66
2022-09-04T13:32:55.069Z,100314.63
2022-09-04T13:35:28.187Z,100304.09
2022-09-04T13:38:01.244Z,100306.13
2022-09-04T13:40:30.932Z,100314.91
2022-09-04T13:43:08.629Z,100313.00
2022-09-04T13:45:48.456Z,100316.25
2022-09-04T13:48:37.485Z,100314.06
2022-09-04T13:51:13.998Z,100308.59
2022-09-04T13:53:54.413Z,100298.59
2022-09-04T13:56:53.898Z,100298.03
2022-09-04T13:59:23.031Z,100304.03
2022-09-04T14:02:00.183Z,100297.44
2022-09-04T14:04:31.443Z,100302.28
2022-09-04T14:07:02.602Z,100300.56
2022-09-04T14:09:39.829Z,100303.28
2022-09-04T14:12:12.495Z,100301.19
2022-09-04T14:15:00.274Z,100302.81
2022-09-04T14:17:33.945Z,100304.72
2022-09-04T14:20:12.066Z,100295.69
2022-09-04T14:23:00.377Z,100298.91
2022-09-04T14:25:53.427Z,100298.69
2022-09-04T14:28:41.172Z,100303.69
2022-09-04T14:31:23.339Z,100306.25
2022-09-04T14:34:20.088Z,100303.72
2022-09-04T14:37:15.538Z,100298.53
2022-09-04T14:39:59.399Z,100298.91
2022-09-04T14:42:51.438Z,100303.44
2022-09-04T14:45:24.544Z,100298.41
2022-09-04T14:48:17.269Z,100295.81
2022-09-04T14:50:59.397Z,100301.34
2022-09-04T14:53:35.412Z,100302.25
2022-09-04T14:56:11.435Z,100300.69
2022-09-04T14:58:50.865Z,100303.38
2022-09-04T15:01:30.647Z,100299.69
2022-09-04T15:04:23.391Z,100306.09
2022-09-04T15:07:11.291Z,100300.91
2022-09-04T15:09:41.526Z,100309.28
2022-09-04T15:12:24.757Z,100302.78
2022-09-04T15:15:15.611Z,100295.59
2022-09-04T15:17:51.620Z,100303.84
2022-09-04T15:20:28.467Z,100301.53
2022-09-04T15:23:04.611Z,100311.53
2022-09-04T15:25:59.514Z,100304.22
2022-09-04T15:28:38.703Z,100304.22
2022-09-04T15:31:18.686Z,100306.72
2022-09-04T15:33:51.232Z,100314.44
2022-09-04T15:36:22.038Z,100308.56
2022-09-04T15:38:59.852Z,100320.66
2022-09-04T15:41:38.616Z,100317.66
2022-09-04T15:44:11.441Z,100318.88
2022-09-04T15:46:50.401Z,100316.16
2022-09-04T15:49:36.151Z,100319.72
2022-09-04T15:52:19.684Z,100313.16
2022-09-04T15:54:49.563Z,100314.88
2022-09-04T15:57:29.529Z,100328.88
2022-09-04T16:00:05.279Z,100322.88
2022-09-04T16:02:54.708Z,100317.41
2022-09-04T16:05:39.665Z,100321.25
2022-09-04T16:08:23.061Z,100323.47
2022-09-04T16:10:59.311Z,100312.47
2022-09-04T16:13:34.023Z,100316.34
2022-09-04T16:16:26.726Z,100319.09
2022-09-04T16:19:15.518Z,100313.88
2022-09-04T16:21:57.406Z,100314.16
2022-09-04T16:24:45.739Z,100317.47
2022-09-04T16:27:23.730Z,100305.91
2022-09-04T16:29:55.541Z,100313.63
2022-09-04T16:32:27.275Z,100318.31
2022-09-04T16:35:00.228Z,100318.59
2022-09-04T16:37:41.259Z,100325.19
2022-09-04T16:40:20.298Z,100315.78
2022-09-04T16:42:58.478Z,100317.41
2022-09-04T16:45:39.655Z,100314.91
2022-09-04T16:48:23.363Z,100316.25
2022-09-04T16:51:39.831Z,100311.81
2022-09-04T16:54:28.886Z,100319.41
2022-09-04T16:57:13.010Z,100309.44
2022-09-04T16:59:58.804Z,100314.84
2022-09-04T17:02:50.967Z,100320.28
2022-09-04T17:05:37.363Z,100317.44
2022-09-04T17:08:28.401Z,100320.31
2022-09-04T17:10:58.129Z,100315.53
2022-09-04T17:13:44.084Z,100313.88
2022-09-04T17:16:26.782Z,100313.75
2022-09-04T17:18:55.589Z,100316.34
2022-09-04T17:25:51.208Z,100316.50
2022-09-04T17:29:10.498Z,100332.88
2022-09-04T17:29:14.170Z,100319.84
2022-09-04T17:30:46.099Z,100333.47
2022-09-04T17:37:06.071Z,100340.09
2022-09-04T17:40:50.559Z,100356.41
2022-09-04T17:40:53.467Z,100345.09
2022-09-04T17:42:26.500Z,100361.50
2022-09-04T17:45:10.328Z,100364.16
2022-09-04T17:47:44.032Z,100366.13
2022-09-04T17:50:22.747Z,100371.28
2022-09-04T17:52:57.993Z,100368.97
2022-09-04T17:55:25.857Z,100373.50
2022-09-04T17:58:01.901Z,100374.72
2022-09-04T18:00:38.486Z,100383.81
2022-09-04T18:03:26.906Z,100390.50
2022-09-04T18:06:03.782Z,100390.16
2022-09-04T18:08:55.869Z,100384.84
2022-09-04T18:11:29.467Z,100401.94
2022-09-04T18:14:09.345Z,100405.28
2022-09-04T18:16:45.535Z,100408.09
2022-09-04T18:19:23.881Z,100412.84
2022-09-04T18:22:26.557Z,100417.13
2022-09-04T18:25:16.382Z,100420.72
2022-09-04T18:28:06.240Z,100421.91
2022-09-04T18:35:19.544Z,100433.91
2022-09-04T18:37:20.786Z,100432.38
2022-09-04T18:37:45.825Z,100438.53
2022-09-04T18:40:26.634Z,100444.22
2022-09-04T18:50:39.645Z,100444.66
2022-09-04T18:50:43.674Z,100447.75
2022-09-04T18:50:45.856Z,100446.69
2022-09-04T18:52:45.015Z,100453.06
2022-09-04T18:55:39.955Z,100451.63
2022-09-04T18:58:12.763Z,100454.94
2022-09-04T19:00:43.899Z,100458.13
2022-09-04T19:03:23.403Z,100467.59
2022-09-04T19:05:55.722Z,100462.41
2022-09-04T19:08:30.101Z,100475.88
2022-09-04T19:11:20.812Z,100467.34
2022-09-04T19:13:48.203Z,100468.50
2022-09-04T19:16:49.611Z,100470.28
2022-09-04T19:19:34.545Z,100474.06
2022-09-04T19:22:14.279Z,100472.50
2022-09-04T19:24:59.795Z,100467.97
2022-09-04T19:27:44.911Z,100466.31
2022-09-04T19:30:23.797Z,100474.91
2022-09-04T19:33:04.044Z,100473.06
2022-09-04T19:35:49.728Z,100473.75
2022-09-04T19:45:57.651Z,100473.13
2022-09-04T19:46:05.542Z,100479.03
2022-09-04T19:46:15.954Z,100472.38
2022-09-04T19:47:59.686Z,100467.63
2022-09-04T19:53:18.304Z,100471.66
2022-09-04T19:53:49.285Z,100468.59
2022-09-04T19:56:30.415Z,100473.47
2022-09-04T19:59:19.103Z,100466.59
2022-09-04T20:02:12.004Z,100471.66
2022-09-04T20:04:47.111Z,100471.97
2022-09-04T20:07:37.216Z,100469.72
2022-09-04T20:10:23.610Z,100462.00
2022-09-04T20:13:08.218Z,100460.72
2022-09-04T20:15:55.342Z,100463.66
2022-09-04T20:18:47.683Z,100465.41
2022-09-04T20:21:31.470Z,100469.63
2022-09-04T20:24:04.677Z,100469.25
2022-09-04T20:26:54.790Z,100459.66
2022-09-04T20:29:32.707Z,100466.38
2022-09-04T20:32:14.501Z,100465.56
2022-09-04T20:34:54.452Z,100465.63
2022-09-04T20:37:43.590Z,100451.88
2022-09-04T20:40:27.154Z,100453.16
2022-09-04T20:43:03.665Z,100462.81
2022-09-04T20:49:16.674Z,100464.09
2022-09-04T20:52:52.041Z,100464.56
2022-09-04T20:52:59.185Z,100464.56
2022-09-04T20:54:51.956Z,100472.72
2022-09-04T21:02:50.679Z,100466.44
2022-09-04T21:03:07.825Z,100466.75
2022-09-04T21:03:39.504Z,100467.56
2022-09-04T21:06:25.586Z,100471.41
2022-09-04T21:09:05.679Z,100465.53
2022-09-04T21:11:41.634Z,100470.59
2022-09-04T21:14:44.704Z,100468.91
2022-09-04T21:17:41.313Z,100472.69
2022-09-04T21:20:14.370Z,100482.72
2022-09-04T21:23:08.301Z,100476.22
2022-09-04T21:26:02.236Z,100482.63
2022-09-04T21:28:46.704Z,100479.72
2022-09-04T21:31:31.925Z,100492.31
2022-09-04T21:34:20.862Z,100493.44
2022-09-04T21:37:11.656Z,100502.41
2022-09-04T21:39:44.496Z,100495.25
2022-09-04T21:42:35.128Z,100486.31
2022-09-04T21:45:18.779Z,100494.75
2022-09-04T21:47:55.093Z,100495.81
2022-09-04T21:50:34.383Z,100492.25
2022-09-04T21:53:16.410Z,100497.91
2022-09-04T22:02:11.054Z,100499.78
2022-09-04T22:02:40.981Z,100502.94
2022-09-04T22:02:41.529Z,100500.28
2022-09-04T22:05:28.182Z,100506.97
2022-09-04T22:13:29.152Z,100505.13
2022-09-04T22:13:37.243Z,100501.38
2022-09-04T22:14:16.333Z,100500.97
2022-09-04T22:16:49.010Z,100498.25
2022-09-04T22:19:40.167Z,100499.97
2022-09-04T22:22:22.117Z,100497.84
2022-09-04T22:24:55.018Z,100496.41
2022-09-04T22:28:07.897Z,100496.41
2022-09-04T22:30:44.313Z,100495.13
2022-09-04T22:33:45.599Z,100499.38
2022-09-04T22:36:40.829Z,100503.34
2022-09-04T22:39:42.461Z,100500.66
2022-09-04T22:45:30.620Z,100500.50
2022-09-04T22:48:19.163Z,100501.53
2022-09-04T22:51:04.438Z,100505.28
2022-09-04T22:53:54.989Z,100504.06
2022-09-04T22:56:45.125Z,100508.22
2022-09-04T22:59:26.828Z,100504.69
2022-09-04T23:02:16.952Z,100512.25
2022-09-04T23:05:02.160Z,100513.28
2022-09-04T23:13:43.686Z,100511.88
2022-09-04T23:13:58.564Z,100503.31
2022-09-04T23:14:26.265Z,100501.88
2022-09-04T23:17:11.514Z,100504.38
2022-09-04T23:26:36.127Z,100506.91
2022-09-04T23:26:43.771Z,100503.97
2022-09-04T23:26:44.991Z,100500.84
2022-09-04T23:29:09.572Z,100507.53
2022-09-04T23:32:04.769Z,100509.38
2022-09-04T23:35:14.287Z,100506.47
2022-09-04T23:38:11.592Z,100501.91
2022-09-04T23:40:47.717Z,100501.06
2022-09-04T23:43:29.523Z,100501.50
2022-09-04T23:46:08.900Z,100496.91
2022-09-04T23:48:47.494Z,100505.66
2022-09-04T23:51:20.978Z,100504.63
2022-09-04T23:53:59.214Z,100507.16
2022-09-04T23:57:01.124Z,100503.19
2022-09-04T23:59:48.974Z,100498.00
